sensor_id;sensor_type;location;lat;lon;timestamp;P1;durP1;ratioP1;P2;durP2;ratioP2
9900;SDS011;4989;48.772;9.154;2023-06-24T00:00:23;777.30;;;727.87;;
9900;SDS011;4989;48.772;9.154;2023-06-24T00:05:25;773.23;;;724.33;;
9900;SDS011;4989;48.772;9.154;2023-06-24T00:10:27;774.17;;;725.30;;
9900;SDS011;4989;48.772;9.154;2023-06-24T00:15:30;797.10;;;746.73;;
9900;SDS011;4989;48.772;9.154;2023-06-24T00:20:33;820.73;;;767.80;;
9900;SDS011;4989;48.772;9.154;2023-06-24T00:25:35;840.70;;;787.13;;
9900;SDS011;4989;48.772;9.154;2023-06-24T00:30:38;849.73;;;795.80;;
9900;SDS011;4989;48.772;9.154;2023-06-24T00:35:42;843.80;;;789.33;;
9900;SDS011;4989;48.772;9.154;2023-06-24T00:40:44;838.07;;;783.00;;
9900;SDS011;4989;48.772;9.154;2023-06-24T00:45:48;805.93;;;755.03;;
9900;SDS011;4989;48.772;9.154;2023-06-24T00:50:51;795.23;;;741.17;;
9900;SDS011;4989;48.772;9.154;2023-06-24T00:55:54;789.10;;;740.00;;
9900;SDS011;4989;48.772;9.154;2023-06-24T01:01:03;837.50;;;784.40;;
9900;SDS011;4989;48.772;9.154;2023-06-24T01:06:08;853.77;;;799.33;;
9900;SDS011;4989;48.772;9.154;2023-06-24T01:11:11;830.40;;;777.03;;
9900;SDS011;4989;48.772;9.154;2023-06-24T01:16:15;813.47;;;760.80;;
9900;SDS011;4989;48.772;9.154;2023-06-24T01:33:26;754.80;;;706.33;;
9900;SDS011;4989;48.772;9.154;2023-06-24T01:38:55;742.37;;;694.17;;
9900;SDS011;4989;48.772;9.154;2023-06-24T01:44:04;796.20;;;744.73;;
9900;SDS011;4989;48.772;9.154;2023-06-24T01:49:12;807.13;;;754.60;;
9900;SDS011;4989;48.772;9.154;2023-06-24T01:54:18;793.00;;;742.90;;
9900;SDS011;4989;48.772;9.154;2023-06-24T01:59:25;749.30;;;701.93;;
9900;SDS011;4989;48.772;9.154;2023-06-24T02:04:32;806.00;;;753.80;;
9900;SDS011;4989;48.772;9.154;2023-06-24T02:09:36;834.13;;;780.50;;
9900;SDS011;4989;48.772;9.154;2023-06-24T02:14:43;808.60;;;755.93;;
9900;SDS011;4989;48.772;9.154;2023-06-24T02:19:47;819.93;;;768.00;;
9900;SDS011;4989;48.772;9.154;2023-06-24T02:24:51;769.37;;;720.97;;
9900;SDS011;4989;48.772;9.154;2023-06-24T02:29:57;804.90;;;736.60;;
9900;SDS011;4989;48.772;9.154;2023-06-24T02:35:01;759.10;;;710.23;;
9900;SDS011;4989;48.772;9.154;2023-06-24T02:40:04;795.40;;;744.13;;
9900;SDS011;4989;48.772;9.154;2023-06-24T02:45:09;807.70;;;755.77;;
9900;SDS011;4989;48.772;9.154;2023-06-24T02:50:13;794.63;;;742.77;;
9900;SDS011;4989;48.772;9.154;2023-06-24T02:55:16;796.00;;;744.40;;
9900;SDS011;4989;48.772;9.154;2023-06-24T03:00:21;741.00;;;693.10;;
9900;SDS011;4989;48.772;9.154;2023-06-24T03:05:42;783.67;;;731.80;;
9900;SDS011;4989;48.772;9.154;2023-06-24T03:10:46;796.20;;;734.83;;
9900;SDS011;4989;48.772;9.154;2023-06-24T03:15:53;727.00;;;680.33;;
9900;SDS011;4989;48.772;9.154;2023-06-24T03:20:56;750.90;;;702.97;;
9900;SDS011;4989;48.772;9.154;2023-06-24T03:26:02;775.30;;;725.33;;
9900;SDS011;4989;48.772;9.154;2023-06-24T03:31:05;800.63;;;748.60;;
9900;SDS011;4989;48.772;9.154;2023-06-24T03:36:07;805.67;;;752.87;;
9900;SDS011;4989;48.772;9.154;2023-06-24T03:41:09;812.77;;;754.83;;
9900;SDS011;4989;48.772;9.154;2023-06-24T03:46:12;821.47;;;763.63;;
9900;SDS011;4989;48.772;9.154;2023-06-24T03:51:15;791.63;;;737.87;;
9900;SDS011;4989;48.772;9.154;2023-06-24T03:56:18;772.33;;;718.90;;
9900;SDS011;4989;48.772;9.154;2023-06-24T04:01:20;739.77;;;687.67;;
9900;SDS011;4989;48.772;9.154;2023-06-24T04:06:23;735.27;;;683.73;;
9900;SDS011;4989;48.772;9.154;2023-06-24T04:11:26;744.23;;;692.50;;
9900;SDS011;4989;48.772;9.154;2023-06-24T04:16:29;717.10;;;666.77;;
9900;SDS011;4989;48.772;9.154;2023-06-24T04:21:31;734.67;;;683.37;;
9900;SDS011;4989;48.772;9.154;2023-06-24T04:26:33;759.20;;;705.90;;
9900;SDS011;4989;48.772;9.154;2023-06-24T04:31:36;768.97;;;714.00;;
9900;SDS011;4989;48.772;9.154;2023-06-24T04:36:38;738.73;;;685.20;;
9900;SDS011;4989;48.772;9.154;2023-06-24T04:41:41;747.63;;;693.93;;
9900;SDS011;4989;48.772;9.154;2023-06-24T04:46:43;751.50;;;697.93;;
9900;SDS011;4989;48.772;9.154;2023-06-24T04:51:45;766.80;;;714.33;;
9900;SDS011;4989;48.772;9.154;2023-06-24T04:56:48;785.13;;;733.07;;
9900;SDS011;4989;48.772;9.154;2023-06-24T05:01:52;737.73;;;687.77;;
9900;SDS011;4989;48.772;9.154;2023-06-24T05:06:54;742.17;;;692.03;;
9900;SDS011;4989;48.772;9.154;2023-06-24T05:11:56;730.47;;;679.33;;
9900;SDS011;4989;48.772;9.154;2023-06-24T05:16:58;712.27;;;661.40;;
9900;SDS011;4989;48.772;9.154;2023-06-24T05:22:01;732.77;;;680.13;;
9900;SDS011;4989;48.772;9.154;2023-06-24T05:27:04;748.50;;;693.03;;
9900;SDS011;4989;48.772;9.154;2023-06-24T05:32:07;745.17;;;689.23;;
9900;SDS011;4989;48.772;9.154;2023-06-24T05:37:10;739.83;;;684.60;;
9900;SDS011;4989;48.772;9.154;2023-06-24T05:42:12;751.30;;;696.90;;
9900;SDS011;4989;48.772;9.154;2023-06-24T05:47:14;730.97;;;679.03;;
9900;SDS011;4989;48.772;9.154;2023-06-24T05:52:16;759.40;;;707.73;;
9900;SDS011;4989;48.772;9.154;2023-06-24T05:57:18;730.47;;;680.47;;
9900;SDS011;4989;48.772;9.154;2023-06-24T06:02:20;706.80;;;657.93;;
9900;SDS011;4989;48.772;9.154;2023-06-24T06:07:23;682.00;;;634.40;;
9900;SDS011;4989;48.772;9.154;2023-06-24T06:12:25;702.53;;;654.17;;
9900;SDS011;4989;48.772;9.154;2023-06-24T06:17:27;709.83;;;661.07;;
9900;SDS011;4989;48.772;9.154;2023-06-24T06:22:29;709.60;;;660.87;;
9900;SDS011;4989;48.772;9.154;2023-06-24T06:27:33;755.27;;;703.83;;
9900;SDS011;4989;48.772;9.154;2023-06-24T06:32:36;753.73;;;701.53;;
9900;SDS011;4989;48.772;9.154;2023-06-24T06:37:38;763.73;;;711.00;;
9900;SDS011;4989;48.772;9.154;2023-06-24T06:42:40;775.57;;;722.17;;
9900;SDS011;4989;48.772;9.154;2023-06-24T06:47:42;773.63;;;719.77;;
9900;SDS011;4989;48.772;9.154;2023-06-24T06:52:44;773.07;;;719.67;;
9900;SDS011;4989;48.772;9.154;2023-06-24T06:57:46;800.07;;;747.43;;
9900;SDS011;4989;48.772;9.154;2023-06-24T07:02:48;764.07;;;713.97;;
9900;SDS011;4989;48.772;9.154;2023-06-24T07:07:51;760.20;;;709.57;;
9900;SDS011;4989;48.772;9.154;2023-06-24T07:12:55;765.30;;;714.73;;
9900;SDS011;4989;48.772;9.154;2023-06-24T07:17:59;771.50;;;720.90;;
9900;SDS011;4989;48.772;9.154;2023-06-24T07:23:02;824.33;;;770.30;;
9900;SDS011;4989;48.772;9.154;2023-06-24T07:28:05;829.03;;;773.83;;
9900;SDS011;4989;48.772;9.154;2023-06-24T07:33:07;851.53;;;794.63;;
9900;SDS011;4989;48.772;9.154;2023-06-24T07:38:09;844.07;;;788.20;;
9900;SDS011;4989;48.772;9.154;2023-06-24T07:43:12;849.70;;;792.57;;
9900;SDS011;4989;48.772;9.154;2023-06-24T07:48:14;841.90;;;785.63;;
9900;SDS011;4989;48.772;9.154;2023-06-24T07:53:16;877.50;;;821.57;;
9900;SDS011;4989;48.772;9.154;2023-06-24T07:58:18;871.07;;;816.67;;
9900;SDS011;4989;48.772;9.154;2023-06-24T08:03:20;837.93;;;784.60;;
9900;SDS011;4989;48.772;9.154;2023-06-24T08:08:24;854.33;;;800.47;;
9900;SDS011;4989;48.772;9.154;2023-06-24T08:13:26;861.07;;;807.30;;
9900;SDS011;4989;48.772;9.154;2023-06-24T08:18:28;868.33;;;814.13;;
9900;SDS011;4989;48.772;9.154;2023-06-24T08:23:31;895.97;;;839.20;;
9900;SDS011;4989;48.772;9.154;2023-06-24T08:28:33;909.03;;;848.80;;
9900;SDS011;4989;48.772;9.154;2023-06-24T08:33:36;925.13;;;862.10;;
9900;SDS011;4989;48.772;9.154;2023-06-24T08:38:38;938.00;;;873.80;;
9900;SDS011;4989;48.772;9.154;2023-06-24T08:43:40;961.43;;;894.53;;
9900;SDS011;4989;48.772;9.154;2023-06-24T08:48:45;954.43;;;889.80;;
9900;SDS011;4989;48.772;9.154;2023-06-24T08:53:50;939.93;;;873.77;;
9900;SDS011;4989;48.772;9.154;2023-06-24T08:58:52;924.40;;;858.40;;
9900;SDS011;4989;48.772;9.154;2023-06-24T09:03:55;934.60;;;868.47;;
9900;SDS011;4989;48.772;9.154;2023-06-24T09:08:58;939.27;;;873.17;;
9900;SDS011;4989;48.772;9.154;2023-06-24T09:14:00;939.77;;;871.87;;
9900;SDS011;4989;48.772;9.154;2023-06-24T09:19:03;951.40;;;882.07;;
9900;SDS011;4989;48.772;9.154;2023-06-24T09:24:05;977.07;;;904.97;;
9900;SDS011;4989;48.772;9.154;2023-06-24T09:29:07;977.00;;;905.60;;
9900;SDS011;4989;48.772;9.154;2023-06-24T09:34:12;996.80;;;925.80;;
9900;SDS011;4989;48.772;9.154;2023-06-24T09:39:16;1000.93;;;931.30;;
9900;SDS011;4989;48.772;9.154;2023-06-24T09:44:30;968.43;;;900.07;;
9900;SDS011;4989;48.772;9.154;2023-06-24T09:49:33;978.93;;;907.77;;
9900;SDS011;4989;48.772;9.154;2023-06-24T09:54:35;982.37;;;909.90;;
9900;SDS011;4989;48.772;9.154;2023-06-24T09:59:38;993.63;;;921.57;;
9900;SDS011;4989;48.772;9.154;2023-06-24T10:04:42;993.77;;;923.37;;
9900;SDS011;4989;48.772;9.154;2023-06-24T10:09:47;1026.33;;;954.50;;
9900;SDS011;4989;48.772;9.154;2023-06-24T10:14:50;951.97;;;888.17;;
9900;SDS011;4989;48.772;9.154;2023-06-24T10:19:53;969.23;;;908.80;;
9900;SDS011;4989;48.772;9.154;2023-06-24T10:25:01;957.93;;;899.00;;
9900;SDS011;4989;48.772;9.154;2023-06-24T10:30:08;944.87;;;886.10;;
9900;SDS011;4989;48.772;9.154;2023-06-24T10:35:23;931.73;;;879.13;;
9900;SDS011;4989;48.772;9.154;2023-06-24T10:45:43;847.10;;;800.03;;
9900;SDS011;4989;48.772;9.154;2023-06-24T10:50:52;734.93;;;692.73;;
9900;SDS011;4989;48.772;9.154;2023-06-24T10:55:56;690.17;;;649.27;;
9900;SDS011;4989;48.772;9.154;2023-06-24T11:01:07;702.50;;;661.03;;
9900;SDS011;4989;48.772;9.154;2023-06-24T11:06:10;766.27;;;720.67;;
9900;SDS011;4989;48.772;9.154;2023-06-24T11:11:20;777.00;;;730.90;;
9900;SDS011;4989;48.772;9.154;2023-06-24T11:16:25;723.13;;;681.17;;
9900;SDS011;4989;48.772;9.154;2023-06-24T11:21:29;739.87;;;697.70;;
9900;SDS011;4989;48.772;9.154;2023-06-24T11:26:35;782.13;;;736.47;;
9900;SDS011;4989;48.772;9.154;2023-06-24T11:31:37;789.30;;;743.27;;
9900;SDS011;4989;48.772;9.154;2023-06-24T11:36:39;814.23;;;767.83;;
9900;SDS011;4989;48.772;9.154;2023-06-24T11:41:41;812.77;;;766.27;;
9900;SDS011;4989;48.772;9.154;2023-06-24T11:46:45;852.90;;;803.00;;
9900;SDS011;4989;48.772;9.154;2023-06-24T11:51:49;878.80;;;829.30;;
9900;SDS011;4989;48.772;9.154;2023-06-24T11:56:52;806.93;;;760.17;;
9900;SDS011;4989;48.772;9.154;2023-06-24T12:01:58;818.23;;;773.23;;
9900;SDS011;4989;48.772;9.154;2023-06-24T12:07:04;824.93;;;777.83;;
9900;SDS011;4989;48.772;9.154;2023-06-24T12:12:06;874.47;;;824.70;;
9900;SDS011;4989;48.772;9.154;2023-06-24T12:17:09;933.13;;;881.77;;
9900;SDS011;4989;48.772;9.154;2023-06-24T12:22:11;927.97;;;878.30;;
9900;SDS011;4989;48.772;9.154;2023-06-24T12:27:13;938.20;;;886.57;;
9900;SDS011;4989;48.772;9.154;2023-06-24T12:32:16;1039.03;;;979.77;;
9900;SDS011;4989;48.772;9.154;2023-06-24T12:37:21;988.00;;;931.58;;
9900;SDS011;4989;48.772;9.154;2023-06-24T12:42:24;968.90;;;911.73;;
9900;SDS011;4989;48.772;9.154;2023-06-24T12:47:27;960.57;;;905.13;;
9900;SDS011;4989;48.772;9.154;2023-06-24T12:52:29;976.20;;;920.83;;
9900;SDS011;4989;48.772;9.154;2023-06-24T12:57:32;1014.23;;;956.10;;
9900;SDS011;4989;48.772;9.154;2023-06-24T13:02:34;1039.33;;;978.93;;
9900;SDS011;4989;48.772;9.154;2023-06-24T13:07:37;1006.23;;;944.77;;
9900;SDS011;4989;48.772;9.154;2023-06-24T13:12:39;1023.40;;;960.67;;
9900;SDS011;4989;48.772;9.154;2023-06-24T13:17:42;1054.20;;;989.33;;
9900;SDS011;4989;48.772;9.154;2023-06-24T13:22:44;1051.73;;;988.70;;
9900;SDS011;4989;48.772;9.154;2023-06-24T13:27:46;1052.37;;;989.80;;
9900;SDS011;4989;48.772;9.154;2023-06-24T13:32:49;960.43;;;906.77;;
9900;SDS011;4989;48.772;9.154;2023-06-24T13:37:51;1009.80;;;951.10;;
9900;SDS011;4989;48.772;9.154;2023-06-24T13:42:53;969.13;;;911.37;;
9900;SDS011;4989;48.772;9.154;2023-06-24T13:47:56;1038.97;;;976.90;;
9900;SDS011;4989;48.772;9.154;2023-06-24T13:52:58;1016.63;;;957.80;;
9900;SDS011;4989;48.772;9.154;2023-06-24T13:58:00;1023.17;;;960.07;;
9900;SDS011;4989;48.772;9.154;2023-06-24T14:03:03;1026.93;;;965.63;;
9900;SDS011;4989;48.772;9.154;2023-06-24T14:08:05;953.83;;;897.83;;
9900;SDS011;4989;48.772;9.154;2023-06-24T14:13:08;1030.30;;;968.03;;
9900;SDS011;4989;48.772;9.154;2023-06-24T14:18:11;980.70;;;921.23;;
9900;SDS011;4989;48.772;9.154;2023-06-24T14:23:13;1034.13;;;968.20;;
9900;SDS011;4989;48.772;9.154;2023-06-24T14:28:15;1054.67;;;987.93;;
9900;SDS011;4989;48.772;9.154;2023-06-24T14:33:17;1087.20;;;999.90;;
9900;SDS011;4989;48.772;9.154;2023-06-24T14:38:20;965.37;;;906.93;;
9900;SDS011;4989;48.772;9.154;2023-06-24T14:43:22;932.10;;;873.47;;
9900;SDS011;4989;48.772;9.154;2023-06-24T14:48:24;1012.57;;;948.97;;
9900;SDS011;4989;48.772;9.154;2023-06-24T14:53:27;963.97;;;901.47;;
9900;SDS011;4989;48.772;9.154;2023-06-24T14:58:29;961.50;;;899.30;;
9900;SDS011;4989;48.772;9.154;2023-06-24T15:03:31;969.80;;;907.83;;
9900;SDS011;4989;48.772;9.154;2023-06-24T15:08:34;1030.77;;;965.37;;
9900;SDS011;4989;48.772;9.154;2023-06-24T15:13:36;1014.60;;;949.17;;
9900;SDS011;4989;48.772;9.154;2023-06-24T15:18:56;1001.63;;;936.20;;
9900;SDS011;4989;48.772;9.154;2023-06-24T15:23:59;1044.13;;;974.47;;
9900;SDS011;4989;48.772;9.154;2023-06-24T15:29:01;973.87;;;910.73;;
9900;SDS011;4989;48.772;9.154;2023-06-24T15:34:04;1048.00;;;978.87;;
9900;SDS011;4989;48.772;9.154;2023-06-24T15:39:06;1008.07;;;941.87;;
9900;SDS011;4989;48.772;9.154;2023-06-24T15:44:08;1016.43;;;949.27;;
9900;SDS011;4989;48.772;9.154;2023-06-24T15:49:11;990.10;;;920.93;;
9900;SDS011;4989;48.772;9.154;2023-06-24T15:54:15;1047.97;;;976.30;;
9900;SDS011;4989;48.772;9.154;2023-06-24T15:59:18;1090.07;;;999.90;;
9900;SDS011;4989;48.772;9.154;2023-06-24T16:04:20;1028.10;;;957.43;;
9900;SDS011;4989;48.772;9.154;2023-06-24T16:09:22;977.13;;;907.07;;
9900;SDS011;4989;48.772;9.154;2023-06-24T16:14:24;981.70;;;913.00;;
9900;SDS011;4989;48.772;9.154;2023-06-24T16:19:26;998.70;;;926.90;;
9900;SDS011;4989;48.772;9.154;2023-06-24T16:24:30;996.40;;;925.63;;
9900;SDS011;4989;48.772;9.154;2023-06-24T16:29:32;1010.03;;;935.93;;
9900;SDS011;4989;48.772;9.154;2023-06-24T16:34:37;1020.60;;;950.93;;
9900;SDS011;4989;48.772;9.154;2023-06-24T16:39:39;1019.43;;;949.77;;
9900;SDS011;4989;48.772;9.154;2023-06-24T16:44:42;1015.87;;;946.13;;
9900;SDS011;4989;48.772;9.154;2023-06-24T16:49:47;1067.23;;;988.20;;
9900;SDS011;4989;48.772;9.154;2023-06-24T16:54:51;1000.57;;;930.00;;
9900;SDS011;4989;48.772;9.154;2023-06-24T16:59:54;997.77;;;926.97;;
9900;SDS011;4989;48.772;9.154;2023-06-24T17:04:56;1191.03;;;930.33;;
9900;SDS011;4989;48.772;9.154;2023-06-24T17:09:58;993.30;;;920.33;;
9900;SDS011;4989;48.772;9.154;2023-06-24T17:15:01;988.07;;;917.90;;
9900;SDS011;4989;48.772;9.154;2023-06-24T17:20:03;1013.03;;;941.10;;
9900;SDS011;4989;48.772;9.154;2023-06-24T17:25:07;1031.90;;;958.53;;
9900;SDS011;4989;48.772;9.154;2023-06-24T17:30:10;1047.63;;;961.07;;
9900;SDS011;4989;48.772;9.154;2023-06-24T17:35:12;1027.13;;;955.40;;
9900;SDS011;4989;48.772;9.154;2023-06-24T17:40:14;1018.03;;;935.90;;
9900;SDS011;4989;48.772;9.154;2023-06-24T17:45:16;1030.13;;;947.53;;
9900;SDS011;4989;48.772;9.154;2023-06-24T17:50:20;1040.10;;;962.93;;
9900;SDS011;4989;48.772;9.154;2023-06-24T17:55:24;969.97;;;898.93;;
9900;SDS011;4989;48.772;9.154;2023-06-24T18:00:30;989.10;;;918.90;;
9900;SDS011;4989;48.772;9.154;2023-06-24T18:05:38;1012.20;;;937.70;;
9900;SDS011;4989;48.772;9.154;2023-06-24T18:10:40;1021.60;;;948.63;;
9900;SDS011;4989;48.772;9.154;2023-06-24T18:15:43;1018.67;;;946.87;;
9900;SDS011;4989;48.772;9.154;2023-06-24T18:20:45;1011.20;;;941.63;;
9900;SDS011;4989;48.772;9.154;2023-06-24T18:25:47;1016.73;;;948.23;;
9900;SDS011;4989;48.772;9.154;2023-06-24T18:30:49;1019.83;;;950.10;;
9900;SDS011;4989;48.772;9.154;2023-06-24T18:35:52;963.80;;;895.63;;
9900;SDS011;4989;48.772;9.154;2023-06-24T18:40:54;967.90;;;901.33;;
9900;SDS011;4989;48.772;9.154;2023-06-24T18:45:56;951.63;;;885.80;;
9900;SDS011;4989;48.772;9.154;2023-06-24T18:50:59;974.40;;;907.87;;
9900;SDS011;4989;48.772;9.154;2023-06-24T18:56:01;963.90;;;898.60;;
9900;SDS011;4989;48.772;9.154;2023-06-24T19:01:04;985.60;;;917.50;;
9900;SDS011;4989;48.772;9.154;2023-06-24T19:06:07;981.57;;;913.40;;
9900;SDS011;4989;48.772;9.154;2023-06-24T19:11:09;979.67;;;910.03;;
9900;SDS011;4989;48.772;9.154;2023-06-24T19:16:11;979.67;;;912.57;;
9900;SDS011;4989;48.772;9.154;2023-06-24T19:21:14;984.03;;;917.20;;
9900;SDS011;4989;48.772;9.154;2023-06-24T19:26:16;1002.80;;;937.57;;
9900;SDS011;4989;48.772;9.154;2023-06-24T19:31:21;988.13;;;920.10;;
9900;SDS011;4989;48.772;9.154;2023-06-24T19:36:24;982.13;;;899.00;;
9900;SDS011;4989;48.772;9.154;2023-06-24T19:41:26;966.10;;;898.83;;
9900;SDS011;4989;48.772;9.154;2023-06-24T19:46:28;954.47;;;891.70;;
9900;SDS011;4989;48.772;9.154;2023-06-24T19:51:41;985.40;;;918.23;;
9900;SDS011;4989;48.772;9.154;2023-06-24T19:56:43;991.70;;;924.80;;
9900;SDS011;4989;48.772;9.154;2023-06-24T20:01:46;991.80;;;926.90;;
9900;SDS011;4989;48.772;9.154;2023-06-24T20:06:48;1022.83;;;946.87;;
9900;SDS011;4989;48.772;9.154;2023-06-24T20:11:50;986.50;;;923.73;;
9900;SDS011;4989;48.772;9.154;2023-06-24T20:16:52;961.23;;;900.90;;
9900;SDS011;4989;48.772;9.154;2023-06-24T20:21:55;949.03;;;889.30;;
9900;SDS011;4989;48.772;9.154;2023-06-24T20:26:57;950.97;;;891.27;;
9900;SDS011;4989;48.772;9.154;2023-06-24T20:31:59;945.40;;;885.87;;
9900;SDS011;4989;48.772;9.154;2023-06-24T20:37:02;958.27;;;898.03;;
9900;SDS011;4989;48.772;9.154;2023-06-24T20:42:04;970.67;;;908.13;;
9900;SDS011;4989;48.772;9.154;2023-06-24T20:47:06;983.43;;;920.10;;
9900;SDS011;4989;48.772;9.154;2023-06-24T20:52:09;976.73;;;913.73;;
9900;SDS011;4989;48.772;9.154;2023-06-24T20:57:11;964.10;;;900.97;;
9900;SDS011;4989;48.772;9.154;2023-06-24T21:02:14;969.50;;;906.47;;
9900;SDS011;4989;48.772;9.154;2023-06-24T21:07:16;976.43;;;913.17;;
9900;SDS011;4989;48.772;9.154;2023-06-24T21:12:18;1001.67;;;939.23;;
9900;SDS011;4989;48.772;9.154;2023-06-24T21:17:20;967.07;;;906.63;;
9900;SDS011;4989;48.772;9.154;2023-06-24T21:22:23;936.37;;;877.90;;
9900;SDS011;4989;48.772;9.154;2023-06-24T21:27:25;931.13;;;872.43;;
9900;SDS011;4989;48.772;9.154;2023-06-24T21:32:30;931.33;;;873.53;;
9900;SDS011;4989;48.772;9.154;2023-06-24T21:37:36;965.43;;;903.70;;
9900;SDS011;4989;48.772;9.154;2023-06-24T21:42:39;960.73;;;899.33;;
9900;SDS011;4989;48.772;9.154;2023-06-24T21:47:41;953.40;;;891.43;;
9900;SDS011;4989;48.772;9.154;2023-06-24T21:52:43;944.37;;;882.60;;
9900;SDS011;4989;48.772;9.154;2023-06-24T21:57:45;942.90;;;881.83;;
9900;SDS011;4989;48.772;9.154;2023-06-24T22:02:48;953.93;;;894.30;;
9900;SDS011;4989;48.772;9.154;2023-06-24T22:07:50;946.93;;;889.40;;
9900;SDS011;4989;48.772;9.154;2023-06-24T22:12:54;913.83;;;857.73;;
9900;SDS011;4989;48.772;9.154;2023-06-24T22:17:56;916.23;;;859.83;;
9900;SDS011;4989;48.772;9.154;2023-06-24T22:22:58;911.53;;;855.03;;
9900;SDS011;4989;48.772;9.154;2023-06-24T22:28:01;916.63;;;859.53;;
9900;SDS011;4989;48.772;9.154;2023-06-24T22:33:03;945.53;;;883.33;;
9900;SDS011;4989;48.772;9.154;2023-06-24T22:38:05;961.90;;;898.37;;
9900;SDS011;4989;48.772;9.154;2023-06-24T22:43:08;961.87;;;899.30;;
9900;SDS011;4989;48.772;9.154;2023-06-24T22:48:10;948.63;;;886.70;;
9900;SDS011;4989;48.772;9.154;2023-06-24T22:53:12;948.07;;;887.00;;
9900;SDS011;4989;48.772;9.154;2023-06-24T22:58:16;937.40;;;876.77;;
9900;SDS011;4989;48.772;9.154;2023-06-24T23:03:19;951.83;;;893.50;;
9900;SDS011;4989;48.772;9.154;2023-06-24T23:08:21;924.30;;;868.37;;
9900;SDS011;4989;48.772;9.154;2023-06-24T23:13:24;908.70;;;853.27;;
9900;SDS011;4989;48.772;9.154;2023-06-24T23:18:26;892.53;;;838.50;;
9900;SDS011;4989;48.772;9.154;2023-06-24T23:23:29;907.07;;;851.93;;
9900;SDS011;4989;48.772;9.154;2023-06-24T23:28:38;935.60;;;877.10;;
9900;SDS011;4989;48.772;9.154;2023-06-24T23:33:48;917.93;;;859.20;;
9900;SDS011;4989;48.772;9.154;2023-06-24T23:38:51;903.93;;;849.20;;
9900;SDS011;4989;48.772;9.154;2023-06-24T23:43:54;879.70;;;825.83;;
9900;SDS011;4989;48.772;9.154;2023-06-24T23:48:56;895.93;;;841.53;;
9900;SDS011;4989;48.772;9.154;2023-06-24T23:53:58;887.67;;;833.17;;
9900;SDS011;4989;48.772;9.154;2023-06-24T23:59:01;886.93;;;831.43;;
